GIA210 WIII-WADD
Flight info
| Callsign | GIA210 |
|---|---|
| Flight time | N/A |
| Altitude | 37000 |
| Route | CA2A CA T3 MOVMO MOVMO1E |
| Aircraft | B77W/H-SDE1E2E3FGHIJ2J3J4J5M1RWXY/LB1D1 |
Departure
| Time | 2026-04-30 10:54 |
|---|---|
| Airport | Soekarno-Hatta International Airport (WIII) |
Arrival
| Time | N/A |
|---|---|
| Airport | Denpasar I Gusti Ngurah Rai International Airport (WADD) |
| Time | Latitude | Longitude | Altitude | Speed | Heading |
|---|---|---|---|---|---|
| 2026-04-30 10:33 | -6.11845 | 106.66231 | 37 ft | 0 kts | 156° |
| 2026-04-30 10:46 | -6.11838 | 106.66228 | 17 ft | 3 kts | 171° |
| 2026-04-30 10:46 | -6.11818 | 106.66229 | 47 ft | 3 kts | 211° |
| 2026-04-30 10:46 | -6.11803 | 106.66243 | 34 ft | 3 kts | 250° |
| 2026-04-30 10:47 | -6.11802 | 106.66244 | 34 ft | 0 kts | 255° |
| 2026-04-30 10:50 | -6.11809 | 106.66218 | 10 ft | 9 kts | 255° |
| 2026-04-30 10:50 | -6.11796 | 106.66125 | 37 ft | 18 kts | 301° |
| 2026-04-30 10:51 | -6.11685 | 106.66007 | 37 ft | 28 kts | 321° |
| 2026-04-30 10:51 | -6.11523 | 106.65883 | 33 ft | 7 kts | 292° |
| 2026-04-30 10:51 | -6.11534 | 106.65831 | 33 ft | 8 kts | 255° |
| 2026-04-30 10:51 | -6.11557 | 106.65751 | 33 ft | 17 kts | 253° |
| 2026-04-30 10:52 | -6.11609 | 106.65608 | 34 ft | 27 kts | 248° |
| 2026-04-30 10:52 | -6.11691 | 106.65405 | 38 ft | 35 kts | 248° |
| 2026-04-30 10:52 | -6.11793 | 106.65155 | 40 ft | 43 kts | 248° |
| 2026-04-30 10:52 | -6.11914 | 106.64856 | 41 ft | 50 kts | 248° |
| 2026-04-30 10:53 | -6.12052 | 106.64518 | 42 ft | 56 kts | 248° |
| 2026-04-30 10:53 | -6.12199 | 106.64153 | 42 ft | 55 kts | 249° |
| 2026-04-30 10:53 | -6.12214 | 106.63910 | 47 ft | 22 kts | 321° |
| 2026-04-30 10:53 | -6.12092 | 106.63932 | 43 ft | 20 kts | 64° |
| 2026-04-30 10:54 | -6.12029 | 106.64062 | 42 ft | 30 kts | 69° |
| 2026-04-30 10:54 | -6.11789 | 106.64657 | 44 ft | 156 kts | 67° |
| 2026-04-30 10:54 | -6.11240 | 106.65970 | 479 ft | 219 kts | 68° |
| 2026-04-30 10:54 | -6.10649 | 106.67370 | 2181 ft | 230 kts | 62° |
| 2026-04-30 10:55 | -6.09663 | 106.68703 | 3207 ft | 246 kts | 49° |
| 2026-04-30 10:55 | -6.08457 | 106.69963 | 4194 ft | 256 kts | 46° |
| 2026-04-30 10:55 | -6.07255 | 106.71332 | 4843 ft | 267 kts | 62° |
| 2026-04-30 10:55 | -6.06879 | 106.73150 | 5834 ft | 273 kts | 97° |
| 2026-04-30 10:56 | -6.07428 | 106.74971 | 6893 ft | 274 kts | 110° |
| 2026-04-30 10:56 | -6.08104 | 106.76786 | 7851 ft | 281 kts | 109° |
| 2026-04-30 10:56 | -6.08775 | 106.78642 | 9028 ft | 284 kts | 109° |
| 2026-04-30 10:56 | -6.09440 | 106.80519 | 10105 ft | 287 kts | 109° |
| 2026-04-30 10:57 | -6.10114 | 106.82444 | 10915 ft | 301 kts | 109° |
| 2026-04-30 10:57 | -6.10842 | 106.84533 | 11207 ft | 333 kts | 109° |
| 2026-04-30 10:57 | -6.11641 | 106.86830 | 11580 ft | 358 kts | 109° |
| 2026-04-30 10:57 | -6.12473 | 106.89225 | 12360 ft | 368 kts | 109° |
| 2026-04-30 10:58 | -6.13314 | 106.91654 | 13107 ft | 368 kts | 109° |
| 2026-04-30 10:58 | -6.14157 | 106.94097 | 13695 ft | 372 kts | 108° |
| 2026-04-30 10:58 | -6.15012 | 106.96575 | 14216 ft | 377 kts | 108° |
| 2026-04-30 10:58 | -6.15871 | 106.99069 | 14736 ft | 379 kts | 108° |
| 2026-04-30 10:59 | -6.16740 | 107.01592 | 15311 ft | 385 kts | 108° |
| 2026-04-30 10:59 | -6.17616 | 107.04132 | 15980 ft | 386 kts | 108° |
| 2026-04-30 10:59 | -6.18501 | 107.06698 | 16682 ft | 391 kts | 109° |
| 2026-04-30 10:59 | -6.19401 | 107.09307 | 17420 ft | 399 kts | 109° |
| 2026-04-30 11:00 | -6.20308 | 107.11935 | 18293 ft | 402 kts | 109° |
| 2026-04-30 11:00 | -6.21231 | 107.14610 | 19114 ft | 405 kts | 109° |
| 2026-04-30 11:00 | -6.22158 | 107.17295 | 19870 ft | 409 kts | 109° |
| 2026-04-30 11:00 | -6.23096 | 107.20014 | 20597 ft | 414 kts | 109° |
| 2026-04-30 11:01 | -6.24047 | 107.22768 | 21316 ft | 419 kts | 109° |
| 2026-04-30 11:01 | -6.25007 | 107.25549 | 22030 ft | 424 kts | 109° |
| 2026-04-30 11:01 | -6.25980 | 107.28371 | 22742 ft | 429 kts | 108° |
| 2026-04-30 11:01 | -6.26499 | 107.29875 | 23109 ft | 431 kts | 108° |
| 2026-04-30 11:02 | -6.27488 | 107.32746 | 23737 ft | 436 kts | 108° |
| 2026-04-30 11:02 | -6.28486 | 107.35642 | 24303 ft | 440 kts | 108° |
| 2026-04-30 11:02 | -6.29490 | 107.38556 | 24873 ft | 444 kts | 108° |
| 2026-04-30 11:02 | -6.30505 | 107.41500 | 25443 ft | 447 kts | 109° |
| 2026-04-30 11:03 | -6.31529 | 107.44470 | 26007 ft | 451 kts | 109° |
| 2026-04-30 11:03 | -6.32562 | 107.47467 | 26545 ft | 455 kts | 109° |
| 2026-04-30 11:03 | -6.33603 | 107.50489 | 27059 ft | 460 kts | 108° |
| 2026-04-30 11:04 | -6.35713 | 107.56615 | 28088 ft | 468 kts | 108° |
| 2026-04-30 11:04 | -6.36772 | 107.59691 | 28624 ft | 471 kts | 108° |
| 2026-04-30 11:04 | -6.37848 | 107.62816 | 29307 ft | 470 kts | 108° |
| 2026-04-30 11:04 | -6.38917 | 107.65924 | 30065 ft | 468 kts | 108° |
| 2026-04-30 11:05 | -6.39974 | 107.68998 | 30733 ft | 466 kts | 108° |
| 2026-04-30 11:05 | -6.41035 | 107.72086 | 31436 ft | 463 kts | 108° |
| 2026-04-30 11:05 | -6.42083 | 107.75133 | 32117 ft | 461 kts | 109° |
| 2026-04-30 11:05 | -6.43130 | 107.78181 | 32735 ft | 461 kts | 109° |
| 2026-04-30 11:06 | -6.44174 | 107.81224 | 33077 ft | 465 kts | 109° |
| 2026-04-30 11:06 | -6.46287 | 107.87374 | 33038 ft | 462 kts | 109° |
| 2026-04-30 11:07 | -6.48375 | 107.93448 | 33083 ft | 459 kts | 109° |
| 2026-04-30 11:07 | -6.50492 | 107.99612 | 33082 ft | 475 kts | 109° |
| 2026-04-30 11:08 | -6.52611 | 108.05779 | 33089 ft | 491 kts | 108° |
| 2026-04-30 11:08 | -6.54865 | 108.12347 | 33086 ft | 502 kts | 108° |
| 2026-04-30 11:09 | -6.57177 | 108.19092 | 33075 ft | 511 kts | 108° |
| 2026-04-30 11:09 | -6.59505 | 108.25888 | 33077 ft | 516 kts | 108° |
| 2026-04-30 11:10 | -6.61850 | 108.32737 | 33071 ft | 519 kts | 108° |
| 2026-04-30 11:10 | -6.64203 | 108.39611 | 33088 ft | 520 kts | 108° |
| 2026-04-30 11:11 | -6.66566 | 108.46521 | 33067 ft | 519 kts | 108° |
| 2026-04-30 11:11 | -6.68873 | 108.53327 | 33059 ft | 511 kts | 107° |
| 2026-04-30 11:12 | -6.70361 | 108.60211 | 33057 ft | 495 kts | 95° |
| 2026-04-30 11:12 | -6.70839 | 108.67180 | 33079 ft | 504 kts | 93° |
| 2026-04-30 11:13 | -6.71334 | 108.74273 | 33076 ft | 512 kts | 95° |
| 2026-04-30 11:13 | -6.72115 | 108.81434 | 33064 ft | 517 kts | 97° |
| 2026-04-30 11:14 | -6.73108 | 108.88624 | 33069 ft | 520 kts | 97° |
| 2026-04-30 11:14 | -6.74028 | 108.95867 | 33062 ft | 522 kts | 96° |
| 2026-04-30 11:15 | -6.74800 | 109.02921 | 33058 ft | 521 kts | 96° |
| 2026-04-30 11:15 | -6.75411 | 109.08933 | 33053 ft | 520 kts | 96° |
| 2026-04-30 11:16 | -6.76146 | 109.16160 | 33055 ft | 518 kts | 96° |
| 2026-04-30 11:16 | -6.76892 | 109.23354 | 33062 ft | 516 kts | 96° |
| 2026-04-30 11:17 | -6.77645 | 109.30538 | 33065 ft | 516 kts | 96° |
| 2026-04-30 11:17 | -6.78403 | 109.37770 | 33067 ft | 516 kts | 96° |
| 2026-04-30 11:18 | -6.79147 | 109.44894 | 33060 ft | 516 kts | 96° |
| 2026-04-30 11:18 | -6.80270 | 109.55683 | 33051 ft | 517 kts | 96° |
| 2026-04-30 11:19 | -6.81017 | 109.62879 | 33052 ft | 517 kts | 96° |
| 2026-04-30 11:19 | -6.81769 | 109.70126 | 33055 ft | 517 kts | 96° |
| 2026-04-30 11:20 | -6.82513 | 109.77310 | 33051 ft | 517 kts | 96° |
| 2026-04-30 11:20 | -6.83258 | 109.84513 | 33049 ft | 517 kts | 96° |
| 2026-04-30 11:21 | -6.84007 | 109.91761 | 33051 ft | 517 kts | 96° |
| 2026-04-30 11:21 | -6.84750 | 109.98963 | 33045 ft | 518 kts | 96° |
| 2026-04-30 11:22 | -6.85465 | 110.05905 | 33045 ft | 518 kts | 96° |
| 2026-04-30 11:22 | -6.86206 | 110.13108 | 33057 ft | 518 kts | 96° |
| 2026-04-30 11:23 | -6.86946 | 110.20322 | 33050 ft | 518 kts | 96° |
| 2026-04-30 11:24 | -6.88057 | 110.31157 | 33044 ft | 519 kts | 96° |
| 2026-04-30 11:24 | -6.88797 | 110.38383 | 33043 ft | 519 kts | 96° |
| 2026-04-30 11:25 | -6.89904 | 110.49229 | 33038 ft | 519 kts | 96° |
| 2026-04-30 11:26 | -6.91373 | 110.63655 | 33039 ft | 517 kts | 96° |
| 2026-04-30 11:26 | -6.92105 | 110.70851 | 33042 ft | 517 kts | 96° |
| 2026-04-30 11:27 | -6.92835 | 110.78049 | 33040 ft | 517 kts | 96° |
| 2026-04-30 11:27 | -6.93560 | 110.85200 | 33042 ft | 516 kts | 96° |
| 2026-04-30 11:28 | -6.94655 | 110.96033 | 33042 ft | 516 kts | 96° |
| 2026-04-30 11:29 | -6.95345 | 111.02873 | 33042 ft | 516 kts | 96° |
| 2026-04-30 11:29 | -6.96436 | 111.13704 | 33043 ft | 516 kts | 96° |
| 2026-04-30 11:30 | -6.97532 | 111.24452 | 33045 ft | 515 kts | 97° |
| 2026-04-30 11:31 | -6.98950 | 111.31364 | 33025 ft | 499 kts | 109° |
| 2026-04-30 11:31 | -7.01923 | 111.37728 | 33041 ft | 501 kts | 117° |
| 2026-04-30 11:32 | -7.04878 | 111.44016 | 33033 ft | 489 kts | 111° |
| 2026-04-30 11:32 | -7.07240 | 111.50546 | 33054 ft | 501 kts | 109° |
| 2026-04-30 11:33 | -7.10919 | 111.60560 | 33059 ft | 514 kts | 111° |
| 2026-04-30 11:33 | -7.13578 | 111.67220 | 33055 ft | 518 kts | 112° |
| 2026-04-30 11:34 | -7.16332 | 111.73987 | 33048 ft | 520 kts | 112° |
| 2026-04-30 11:34 | -7.19064 | 111.80737 | 33048 ft | 520 kts | 112° |
| 2026-04-30 11:35 | -7.21771 | 111.87482 | 33050 ft | 519 kts | 112° |
| 2026-04-30 11:35 | -7.24488 | 111.94275 | 33051 ft | 518 kts | 112° |